In Rescue
 
Open Full Screen Window  High Contrast Mode
Wind Gusting 00 knots
09
January 24, 2020 8:09 PM CST
Present Weather: Mist
Weather Information
Wind Direction
  340 °
Wind Speed
  09 kt (10 mph)
Wind Gust
  00 kt (0 mph)
Altimeter
30.04 in
Visibility
5 SM
Temperature
-04° C
25° F
Dewpoint
-04° C
25° F
Humidity
100%
1hr Rain Fall
00.00 in.
24hr Rain Fall
00.00 in.
Sky Condition
Overcast @ 3,300 ft
MVFR

METAR KMVE 250209Z AUTO 34009KT 5SM BR OVC033 M04/M04 A3004 RMK AO2

FAA Disclaimer: The data displayed is for advisory purposes only and is not to be used for flight planning or operations.